Time;durP1;ratioP1;P1;durP2;ratioP2;P2;SDS_P1;SDS_P2;PMS_P1;PMS_P2;Temp;Humidity;BMP_temperature;BMP_pressure;BME280_temperature;BME280_humidity;BME280_pressure;Samples;Min_cycle;Max_cycle;Signal;HPM_P1;HPM_P2
2023/06/22 00:00:58;;;;;;;13.70;10.80;;;;;;;20.84;78.89;100972.75;110966;1208;140540;-62
2023/06/22 00:03:25;;;;;;;13.80;11.10;;;;;;;20.82;78.97;100970.52;111102;1219;98451;-62
2023/06/22 00:05:51;;;;;;;16.00;11.40;;;;;;;20.80;78.99;100970.92;110988;1221;97453;-62
2023/06/22 00:08:18;;;;;;;16.00;10.60;;;;;;;20.79;79.05;100968.28;110967;1218;138603;-61
2023/06/22 00:10:44;;;;;;;15.40;11.80;;;;;;;20.77;79.29;100973.70;111166;1206;97758;-62
2023/06/22 00:13:10;;;;;;;14.90;11.00;;;;;;;20.77;79.42;100984.25;111261;1208;140047;-62
2023/06/22 00:15:37;;;;;;;17.10;11.10;;;;;;;20.74;79.32;100983.53;111063;1208;97587;-62
2023/06/22 00:18:02;;;;;;;14.50;11.20;;;;;;;20.74;79.38;100984.25;111211;1206;97760;-61
2023/06/22 00:20:28;;;;;;;12.00;10.30;;;;;;;20.73;79.65;100987.29;111015;1206;140177;-61
2023/06/22 00:22:54;;;;;;;15.00;11.90;;;;;;;20.71;79.64;100999.19;111194;1208;97687;-61
2023/06/22 00:25:20;;;;;;;15.50;11.40;;;;;;;20.70;79.72;101002.02;110965;1209;138888;-61
2023/06/22 00:27:46;;;;;;;15.40;11.50;;;;;;;20.69;79.81;101005.39;111076;1206;97695;-62
2023/06/22 00:30:11;;;;;;;16.30;11.70;;;;;;;20.67;79.78;101005.52;111028;1206;140136;-61
2023/06/22 00:32:37;;;;;;;18.00;11.20;;;;;;;20.65;79.96;101009.55;110784;1212;98068;-61
2023/06/22 00:35:02;;;;;;;16.50;11.80;;;;;;;20.64;79.98;101009.80;110887;1210;97811;-61
2023/06/22 00:37:29;;;;;;;17.10;12.60;;;;;;;20.60;79.92;101011.92;110931;1206;139675;-62
2023/06/22 00:39:55;;;;;;;17.80;11.30;;;;;;;20.53;79.90;101007.02;110970;1211;97661;-61
2023/06/22 00:42:21;;;;;;;17.80;12.30;;;;;;;20.48;80.15;101007.10;110806;1208;139377;-61
2023/06/22 00:44:46;;;;;;;16.70;11.40;;;;;;;20.45;80.17;101008.38;110977;1212;97618;-61
2023/06/22 00:47:15;;;;;;;12.40;10.40;;;;;;;20.42;80.34;101009.91;110987;1212;109745;-61
2023/06/22 00:49:41;;;;;;;16.60;11.90;;;;;;;20.39;80.49;101016.50;110951;1206;140416;-62
2023/06/22 00:52:13;;;;;;;14.80;11.70;;;;;;;20.36;80.72;101011.99;111052;1218;99087;-61
2023/06/22 00:54:46;;;;;;;13.80;11.00;;;;;;;20.34;80.73;101012.11;111002;1210;139425;-64
2023/06/22 00:57:15;;;;;;;14.70;10.80;;;;;;;20.31;80.84;101020.52;111150;1209;98020;-61
2023/06/22 00:59:45;;;;;;;14.20;12.00;;;;;;;20.27;81.16;101021.52;111076;1208;103129;-61
2023/06/22 01:02:11;;;;;;;16.40;11.50;;;;;;;20.24;81.40;101020.38;111032;1211;140643;-61
2023/06/22 01:04:38;;;;;;;15.20;11.90;;;;;;;20.20;81.34;101019.42;111127;1209;97729;-61
2023/06/22 01:07:22;;;;;;;17.50;12.90;;;;;;;20.16;81.64;101021.19;111029;1218;138669;-62
2023/06/22 01:10:10;;;;;;;15.00;12.40;;;;;;;20.12;81.84;101020.59;111094;1208;98473;-61
2023/06/22 01:12:43;;;;;;;20.90;12.80;;;;;;;20.09;82.08;101020.60;110984;1208;139403;-61
2023/06/22 01:15:13;;;;;;;15.50;13.20;;;;;;;20.07;82.37;101025.52;110988;1208;97636;-61
2023/06/22 01:17:42;;;;;;;20.60;13.70;;;;;;;20.05;82.33;101024.54;111057;1208;99582;-61
2023/06/22 01:20:11;;;;;;;16.10;14.30;;;;;;;19.99;82.77;101026.47;110846;1208;139669;-61
2023/06/22 01:23:02;;;;;;;17.90;14.20;;;;;;;19.95;82.86;101025.52;111127;1206;97929;-62
2023/06/22 01:25:36;;;;;;;21.70;15.50;;;;;;;19.90;83.24;101025.94;110923;1206;139652;-61
2023/06/22 01:28:33;;;;;;;22.00;16.30;;;;;;;19.87;83.42;101020.86;111011;1208;97741;-61
2023/06/22 01:31:05;;;;;;;22.80;14.60;;;;;;;19.85;83.52;101022.70;110852;1209;140348;-61
2023/06/22 01:33:37;;;;;;;20.30;15.70;;;;;;;19.81;83.64;101026.23;110947;1212;100824;-61
2023/06/22 01:36:04;;;;;;;23.10;16.30;;;;;;;19.77;83.88;101026.66;110991;1212;98272;-61
2023/06/22 01:38:31;;;;;;;24.70;16.70;;;;;;;19.76;84.03;101028.00;111033;1209;139564;-61
2023/06/22 01:40:58;;;;;;;21.00;16.60;;;;;;;19.76;84.13;101028.40;111094;1206;97729;-61
2023/06/22 01:43:26;;;;;;;20.90;16.50;;;;;;;19.75;84.11;101032.27;110785;1218;139883;-61
2023/06/22 01:45:52;;;;;;;25.20;17.20;;;;;;;19.73;84.28;101035.67;110998;1212;97619;-62
2023/06/22 01:48:19;;;;;;;19.40;15.30;;;;;;;19.73;84.34;101040.02;110875;1209;140558;-61
2023/06/22 01:50:45;;;;;;;21.20;15.60;;;;;;;19.72;84.40;101047.22;110948;1210;97671;-61
2023/06/22 01:53:10;;;;;;;19.00;14.40;;;;;;;19.71;84.52;101048.20;111108;1209;98074;-61
2023/06/22 01:55:35;;;;;;;19.40;15.10;;;;;;;19.70;84.82;101049.35;110880;1210;139455;-61
2023/06/22 01:58:01;;;;;;;18.20;14.90;;;;;;;19.70;84.96;101053.35;111053;1206;99007;-61
2023/06/22 02:00:31;;;;;;;19.70;14.80;;;;;;;19.70;85.06;101056.96;110836;1206;139581;-61
2023/06/22 02:03:02;;;;;;;18.50;13.80;;;;;;;19.70;85.23;101052.80;111056;1206;98651;-63
2023/06/22 02:05:34;;;;;;;21.10;14.70;;;;;;;19.68;85.42;101050.41;111218;1210;99445;-61
2023/06/22 02:08:09;;;;;;;16.60;13.60;;;;;;;19.64;85.59;101050.70;111047;1206;140100;-61
2023/06/22 02:10:37;;;;;;;23.20;15.30;;;;;;;19.60;85.83;101049.41;110884;1211;101810;-62
2023/06/22 02:13:06;;;;;;;24.60;14.60;;;;;;;19.56;85.96;101050.80;110914;1211;138872;-61
2023/06/22 02:15:31;;;;;;;20.90;15.60;;;;;;;19.52;86.34;101055.08;111051;1206;99441;-61
2023/06/22 02:17:58;;;;;;;23.30;16.40;;;;;;;19.50;86.56;101060.10;111114;1211;97607;-61
2023/06/22 02:20:24;;;;;;;19.40;14.40;;;;;;;19.49;86.71;101060.66;111070;1210;139498;-62
2023/06/22 02:22:49;;;;;;;18.70;14.00;;;;;;;19.50;86.80;101057.17;111226;1208;97733;-61
2023/06/22 02:25:14;;;;;;;19.70;12.90;;;;;;;19.49;86.56;101061.20;110886;1220;141198;-61
2023/06/22 02:27:40;;;;;;;15.40;10.70;;;;;;;19.51;86.60;101069.22;111031;1205;97613;-61
2023/06/22 02:30:09;;;;;;;17.50;11.80;;;;;;;19.56;86.57;101077.27;111093;1207;97678;-61
2023/06/22 02:32:34;;;;;;;14.70;10.80;;;;;;;19.60;86.64;101076.61;111434;1205;97587;-61
2023/06/22 02:34:59;;;;;;;13.70;9.20;;;;;;;19.63;86.50;101081.63;111029;1208;98831;-61
2023/06/22 02:37:25;;;;;;;14.10;9.10;;;;;;;19.68;86.34;101086.87;111020;1206;139339;-61
2023/06/22 02:39:50;;;;;;;10.60;8.10;;;;;;;19.71;85.98;101084.77;111019;1206;97578;-61
2023/06/22 02:42:20;;;;;;;13.30;9.00;;;;;;;19.76;85.98;101083.66;110962;1206;139347;-61
2023/06/22 02:44:45;;;;;;;13.50;9.40;;;;;;;19.79;85.58;101083.50;110959;1211;97693;-61
2023/06/22 02:47:10;;;;;;;11.40;9.00;;;;;;;19.76;85.17;101087.49;111024;1211;97616;-61
2023/06/22 02:49:36;;;;;;;11.80;8.20;;;;;;;19.74;84.87;101095.32;110969;1211;139112;-61
2023/06/22 02:52:01;;;;;;;11.20;8.30;;;;;;;19.71;84.48;101091.33;110952;1212;96530;-61
2023/06/22 02:54:26;;;;;;;13.10;7.90;;;;;;;19.68;84.18;101089.02;110862;1205;140194;-62
2023/06/22 02:56:51;;;;;;;11.70;8.40;;;;;;;19.65;83.85;101091.27;111036;1218;97642;-61
2023/06/22 02:59:17;;;;;;;12.50;9.30;;;;;;;19.62;83.44;101095.98;111089;1206;97661;-61
2023/06/22 03:01:42;;;;;;;13.60;8.20;;;;;;;19.59;83.22;101093.54;111016;1205;140572;-61
2023/06/22 03:04:08;;;;;;;17.30;8.30;;;;;;;19.52;82.93;101085.52;110964;1209;97648;-61
2023/06/22 03:06:34;;;;;;;11.00;7.50;;;;;;;19.46;82.69;101084.31;111073;1204;139795;-61
2023/06/22 03:09:02;;;;;;;11.30;7.30;;;;;;;19.42;82.50;101086.39;111087;1208;98988;-61
2023/06/22 03:11:27;;;;;;;10.00;7.30;;;;;;;19.37;82.29;101093.63;111132;1209;97664;-61
2023/06/22 03:13:52;;;;;;;10.00;8.20;;;;;;;19.36;82.15;101099.56;110926;1206;140201;-61
2023/06/22 03:16:19;;;;;;;8.70;7.60;;;;;;;19.31;81.96;101097.35;111087;1209;97600;-61
2023/06/22 03:18:45;;;;;;;8.20;6.90;;;;;;;19.29;81.82;101095.16;111002;1206;139760;-61
2023/06/22 03:21:10;;;;;;;10.30;6.80;;;;;;;19.25;81.71;101095.42;111197;1205;98023;-61
2023/06/22 03:23:36;;;;;;;11.50;7.70;;;;;;;19.21;81.38;101096.27;111178;1209;97747;-61
2023/06/22 03:26:01;;;;;;;10.90;7.20;;;;;;;19.19;81.22;101098.06;110986;1208;140154;-61
2023/06/22 03:28:26;;;;;;;9.30;6.70;;;;;;;19.15;80.95;101098.33;111066;1208;97667;-61
2023/06/22 03:30:52;;;;;;;9.70;6.50;;;;;;;19.11;80.74;101099.35;110967;1209;140620;-61
2023/06/22 03:33:17;;;;;;;9.10;7.50;;;;;;;19.07;80.61;101105.40;111039;1222;97575;-61
2023/06/22 03:35:42;;;;;;;10.50;7.10;;;;;;;19.06;80.47;101110.75;111122;1208;97626;-61
2023/06/22 03:38:07;;;;;;;13.80;7.50;;;;;;;19.04;80.41;101108.91;110894;1209;140776;-61
2023/06/22 03:40:33;;;;;;;7.80;6.70;;;;;;;19.02;80.32;101101.45;111166;1209;97594;-61
2023/06/22 03:42:58;;;;;;;10.20;7.00;;;;;;;19.01;80.29;101102.60;111024;1208;138365;-61
2023/06/22 03:45:23;;;;;;;10.30;6.70;;;;;;;18.99;80.06;101105.30;111001;1208;97930;-61
2023/06/22 03:47:48;;;;;;;8.50;6.80;;;;;;;18.97;80.10;101111.38;111160;1207;97608;-61
2023/06/22 03:50:14;;;;;;;10.30;7.00;;;;;;;18.97;80.03;101111.20;110951;1209;138470;-61
2023/06/22 03:52:40;;;;;;;7.80;6.10;;;;;;;18.96;79.82;101108.42;111217;1206;96870;-61
2023/06/22 03:55:06;;;;;;;11.60;6.40;;;;;;;18.93;79.71;101109.36;110959;1209;140148;-61
2023/06/22 03:57:32;;;;;;;13.10;6.80;;;;;;;18.94;79.77;101107.08;111362;1206;97588;-61
2023/06/22 03:59:58;;;;;;;8.50;6.50;;;;;;;18.95;79.62;101106.64;111261;1206;97629;-64
2023/06/22 04:02:23;;;;;;;9.40;6.40;;;;;;;18.94;79.53;101109.59;110972;1206;138447;-61
2023/06/22 04:04:48;;;;;;;8.20;5.70;;;;;;;18.94;79.45;101116.69;111037;1209;97622;-61
2023/06/22 04:07:14;;;;;;;7.50;5.90;;;;;;;18.96;79.37;101125.79;111070;1206;139007;-62
2023/06/22 04:09:39;;;;;;;9.80;6.30;;;;;;;18.97;79.25;101133.87;111184;1206;97665;-61
2023/06/22 04:12:05;;;;;;;12.50;6.70;;;;;;;18.98;79.03;101138.16;111110;1208;97671;-63
2023/06/22 04:14:30;;;;;;;10.00;5.80;;;;;;;18.99;78.93;101141.28;111069;1209;139963;-61
2023/06/22 04:16:55;;;;;;;9.20;5.60;;;;;;;19.04;78.92;101142.05;111129;1209;97770;-61
2023/06/22 04:19:20;;;;;;;16.00;6.30;;;;;;;19.07;78.96;101145.42;111060;1213;138285;-61
2023/06/22 04:21:48;;;;;;;12.50;6.50;;;;;;;19.08;78.69;101150.29;111087;1209;99071;-61
2023/06/22 04:24:14;;;;;;;14.00;5.90;;;;;;;19.09;78.65;101149.30;110981;1208;139657;-61
2023/06/22 04:26:41;;;;;;;9.50;5.80;;;;;;;19.11;78.59;101139.23;111215;1206;97619;-61
2023/06/22 04:29:08;;;;;;;9.20;4.90;;;;;;;19.13;78.49;101144.86;111039;1209;107911;-61
2023/06/22 04:31:36;;;;;;;7.60;5.20;;;;;;;19.17;78.41;101148.38;110987;1206;139018;-61
2023/06/22 04:34:06;;;;;;;7.70;5.50;;;;;;;19.21;78.24;101145.52;111257;1208;98977;-62
2023/06/22 04:36:37;;;;;;;7.60;4.50;;;;;;;19.24;78.03;101147.73;111030;1206;138834;-61
2023/06/22 04:39:10;;;;;;;5.50;4.10;;;;;;;19.25;77.84;101153.78;110996;1210;97577;-61
2023/06/22 04:41:43;;;;;;;11.70;4.90;;;;;;;19.28;77.79;101153.61;110951;1210;99809;-61
2023/06/22 04:44:12;;;;;;;9.80;4.50;;;;;;;19.32;77.69;101155.48;110949;1206;139655;-61
2023/06/22 04:46:38;;;;;;;10.90;4.70;;;;;;;19.36;77.55;101156.99;111184;1208;97753;-61
2023/06/22 04:49:06;;;;;;;11.40;4.40;;;;;;;19.38;77.34;101149.25;111119;1208;139398;-61
2023/06/22 04:51:32;;;;;;;7.60;4.90;;;;;;;19.40;77.25;101150.36;111192;1206;97575;-62
2023/06/22 04:54:00;;;;;;;14.80;4.60;;;;;;;19.40;77.23;101147.59;111194;1218;97659;-61
2023/06/22 04:56:28;;;;;;;10.70;5.70;;;;;;;19.44;77.02;101152.35;111141;1206;138387;-61
2023/06/22 04:58:57;;;;;;;9.60;4.40;;;;;;;19.48;76.95;101147.90;111273;1206;98153;-61
2023/06/22 05:01:23;;;;;;;13.60;4.70;;;;;;;19.50;76.86;101144.70;111098;1208;140073;-61
2023/06/22 05:03:49;;;;;;;8.30;4.20;;;;;;;19.53;76.67;101144.20;111260;1206;97632;-61
2023/06/22 05:06:14;;;;;;;6.90;4.50;;;;;;;19.55;76.66;101147.80;111189;1208;138629;-61
2023/06/22 05:08:40;;;;;;;6.70;4.00;;;;;;;19.60;76.59;101153.30;111101;1206;103362;-62
2023/06/22 05:11:05;;;;;;;6.80;4.10;;;;;;;19.62;76.30;101153.64;111236;1206;97696;-62
2023/06/22 05:13:31;;;;;;;11.90;4.70;;;;;;;19.63;76.09;101151.06;111074;1208;138351;-62
2023/06/22 05:16:01;;;;;;;7.30;3.60;;;;;;;19.66;75.99;101150.84;113212;1205;95530;-62
2023/06/22 05:18:30;;;;;;;10.10;4.40;;;;;;;19.68;75.87;101151.60;111757;1206;140608;-62
2023/06/22 05:20:56;;;;;;;8.90;3.10;;;;;;;19.68;75.50;101149.03;111391;1206;97981;-62
2023/06/22 05:23:21;;;;;;;8.20;3.30;;;;;;;19.69;75.22;101149.12;110928;1206;98177;-62
2023/06/22 05:25:46;;;;;;;9.80;3.40;;;;;;;19.72;74.87;101143.65;110932;1208;139113;-62
2023/06/22 05:28:12;;;;;;;11.70;3.40;;;;;;;19.75;74.52;101143.83;110950;1206;97518;-62
2023/06/22 05:30:38;;;;;;;12.90;4.30;;;;;;;19.78;74.39;101148.48;110913;1208;139423;-62
2023/06/22 05:33:03;;;;;;;4.60;3.00;;;;;;;19.83;74.23;101147.45;111059;1208;97662;-62
2023/06/22 05:35:29;;;;;;;7.20;3.00;;;;;;;19.85;73.69;101146.90;111018;1208;97675;-62
2023/06/22 05:37:55;;;;;;;7.50;2.90;;;;;;;19.89;73.49;101144.45;110974;1206;139179;-62
2023/06/22 05:40:20;;;;;;;10.20;3.30;;;;;;;19.94;73.33;101140.80;110967;1206;97728;-62
2023/06/22 05:42:45;;;;;;;10.30;2.50;;;;;;;19.96;73.03;101141.90;110830;1206;139245;-62
2023/06/22 05:45:10;;;;;;;9.30;2.60;;;;;;;19.95;72.51;101144.32;110937;1210;97850;-62
2023/06/22 05:47:36;;;;;;;6.70;2.60;;;;;;;19.94;71.90;101152.36;110854;1206;97979;-61
2023/06/22 05:50:01;;;;;;;5.80;2.60;;;;;;;19.93;71.54;101148.46;110713;1206;139332;-62
2023/06/22 05:52:26;;;;;;;5.30;2.80;;;;;;;19.96;71.69;101152.80;111002;1206;98100;-62
2023/06/22 05:54:51;;;;;;;7.70;3.50;;;;;;;20.01;71.70;101155.34;110959;1206;140292;-62
2023/06/22 05:57:16;;;;;;;7.60;2.60;;;;;;;20.04;71.74;101156.30;111013;1206;98504;-62
2023/06/22 05:59:42;;;;;;;8.40;2.80;;;;;;;20.09;71.74;101154.17;111038;1206;97869;-62
2023/06/22 06:02:07;;;;;;;5.30;3.20;;;;;;;20.15;71.62;101153.86;111132;1208;140628;-62
2023/06/22 06:04:32;;;;;;;14.80;3.30;;;;;;;20.21;71.46;101159.96;111165;1206;98051;-62
2023/06/22 06:06:57;;;;;;;11.20;3.10;;;;;;;20.23;71.53;101162.49;111059;1208;138932;-62
2023/06/22 06:09:23;;;;;;;7.20;2.50;;;;;;;20.27;71.49;101164.07;111037;1205;98401;-62
2023/06/22 06:11:48;;;;;;;16.00;3.40;;;;;;;20.31;71.31;101158.48;111155;1209;97599;-62
2023/06/22 06:14:13;;;;;;;12.40;3.70;;;;;;;20.34;71.12;101152.08;110910;1210;138573;-62
2023/06/22 06:16:38;;;;;;;6.80;2.70;;;;;;;20.34;70.97;101153.16;111139;1206;97655;-62
2023/06/22 06:19:04;;;;;;;10.30;2.70;;;;;;;20.41;70.89;101157.01;110847;1210;140680;-62
2023/06/22 06:21:29;;;;;;;5.90;2.80;;;;;;;20.47;70.77;101160.54;110988;1210;97772;-62
2023/06/22 06:23:54;;;;;;;9.40;3.30;;;;;;;20.52;70.79;101163.77;111017;1208;97805;-62
2023/06/22 06:26:27;;;;;;;7.00;3.30;;;;;;;20.58;70.64;101164.77;110801;1219;140774;-62
2023/06/22 06:28:54;;;;;;;7.00;2.50;;;;;;;20.60;70.29;101161.75;110941;1208;103027;-62
2023/06/22 06:31:20;;;;;;;15.90;3.30;;;;;;;20.62;70.19;101162.13;110769;1209;139070;-62
2023/06/22 06:33:46;;;;;;;4.90;3.10;;;;;;;20.69;70.23;101153.95;110889;1209;97614;-62
2023/06/22 06:36:11;;;;;;;14.50;3.80;;;;;;;20.77;70.10;101155.73;110857;1208;138607;-62
2023/06/22 06:38:36;;;;;;;9.80;3.00;;;;;;;20.81;69.94;101160.25;110984;1206;99052;-62
2023/06/22 06:41:01;;;;;;;4.70;2.70;;;;;;;20.82;69.61;101166.30;110957;1206;97723;-63
2023/06/22 06:43:27;;;;;;;5.40;2.80;;;;;;;20.78;69.50;101167.95;110727;1208;138571;-60
2023/06/22 06:45:52;;;;;;;10.30;3.20;;;;;;;20.75;68.89;101166.56;110962;1210;97997;-61
2023/06/22 06:48:17;;;;;;;6.30;3.30;;;;;;;20.74;69.06;101168.07;110815;1221;139037;-61
2023/06/22 06:50:43;;;;;;;11.90;3.30;;;;;;;20.81;69.16;101168.06;110869;1206;98039;-63
2023/06/22 06:53:09;;;;;;;10.90;3.20;;;;;;;20.88;68.72;101170.05;110993;1206;97589;-62
2023/06/22 06:55:34;;;;;;;5.70;2.70;;;;;;;20.92;68.55;101177.33;110739;1210;138147;-62
2023/06/22 06:58:01;;;;;;;7.90;3.30;;;;;;;20.96;68.32;101179.22;110766;1210;99037;-62
2023/06/22 07:00:27;;;;;;;9.20;3.20;;;;;;;20.95;68.27;101182.89;110693;1207;138704;-62
2023/06/22 07:02:52;;;;;;;8.20;3.60;;;;;;;20.98;68.16;101188.89;110887;1208;97594;-62
2023/06/22 07:05:18;;;;;;;7.00;3.50;;;;;;;21.02;67.98;101191.05;110782;1205;98667;-63
2023/06/22 07:07:43;;;;;;;6.60;2.90;;;;;;;21.06;67.69;101190.96;110756;1210;139351;-63
2023/06/22 07:10:09;;;;;;;8.00;3.50;;;;;;;21.08;67.50;101186.77;110740;1212;98919;-62
2023/06/22 07:12:35;;;;;;;5.30;2.60;;;;;;;21.12;67.62;101181.23;110879;1206;139501;-62
2023/06/22 07:15:03;;;;;;;12.50;3.70;;;;;;;21.21;67.69;101178.37;110877;1211;99045;-62
2023/06/22 07:17:28;;;;;;;7.80;3.20;;;;;;;21.30;67.65;101173.67;110874;1209;99191;-62
2023/06/22 07:19:53;;;;;;;8.40;3.40;;;;;;;21.36;67.43;101166.58;110742;1211;138110;-62
2023/06/22 07:22:18;;;;;;;5.80;3.40;;;;;;;21.44;66.77;101171.96;110940;1209;97597;-62
2023/06/22 07:24:44;;;;;;;10.10;3.20;;;;;;;21.47;66.61;101167.38;110892;1206;139699;-62
2023/06/22 07:27:11;;;;;;;8.10;3.50;;;;;;;21.53;66.56;101174.84;110866;1209;99325;-62
2023/06/22 07:29:36;;;;;;;14.80;3.60;;;;;;;21.62;66.61;101179.20;110867;1206;97929;-62
2023/06/22 07:32:04;;;;;;;6.00;3.20;;;;;;;21.68;66.19;101171.98;110691;1208;138593;-62
2023/06/22 07:34:30;;;;;;;12.40;3.80;;;;;;;21.71;66.00;101167.58;110550;1206;97917;-62
2023/06/22 07:36:55;;;;;;;9.80;3.20;;;;;;;21.79;65.82;101165.10;110333;1206;138093;-62
2023/06/22 07:39:25;;;;;;;9.00;3.60;;;;;;;21.87;65.73;101157.90;110565;1210;97775;-62
2023/06/22 07:41:51;;;;;;;5.70;3.00;;;;;;;21.92;65.48;101157.52;110888;1211;103618;-61
2023/06/22 07:44:16;;;;;;;17.40;3.80;;;;;;;21.94;65.22;101156.25;110799;1206;138895;-62
2023/06/22 07:46:41;;;;;;;7.00;3.20;;;;;;;21.98;65.00;101160.27;110900;1208;97691;-61
2023/06/22 07:49:08;;;;;;;9.80;3.60;;;;;;;22.03;64.81;101159.85;110690;1212;138725;-62
2023/06/22 07:51:33;;;;;;;5.10;2.80;;;;;;;22.06;64.43;101160.52;110901;1211;97592;-62
2023/06/22 07:53:59;;;;;;;7.00;3.00;;;;;;;22.06;64.23;101156.92;110802;1219;97892;-61
2023/06/22 07:56:24;;;;;;;8.80;3.20;;;;;;;22.06;63.94;101155.81;110608;1206;140760;-61
2023/06/22 07:58:49;;;;;;;10.70;3.20;;;;;;;22.09;63.65;101155.88;110865;1208;98980;-61
2023/06/22 08:01:15;;;;;;;8.10;3.10;;;;;;;22.21;63.44;101164.73;110780;1209;139401;-62
2023/06/22 08:03:40;;;;;;;4.40;3.30;;;;;;;22.28;62.77;101168.28;110929;1206;97893;-62
2023/06/22 08:06:08;;;;;;;6.10;3.40;;;;;;;22.31;62.38;101169.66;110977;1208;97713;-62
2023/06/22 08:08:35;;;;;;;8.00;3.40;;;;;;;22.33;62.16;101169.56;111590;1206;102842;-61
2023/06/22 08:11:00;;;;;;;5.10;3.20;;;;;;;22.37;61.70;101165.77;111074;1209;97738;-61
2023/06/22 08:13:25;;;;;;;8.40;3.40;;;;;;;22.50;61.38;101171.41;111001;1206;137710;-61
2023/06/22 08:15:50;;;;;;;8.20;3.20;;;;;;;22.63;61.29;101163.10;111102;1208;101083;-62
2023/06/22 08:18:16;;;;;;;7.80;3.60;;;;;;;22.73;60.92;101160.63;111071;1208;139921;-61
2023/06/22 08:20:42;;;;;;;7.70;3.60;;;;;;;22.80;60.70;101163.37;111055;1208;100027;-62
2023/06/22 08:23:07;;;;;;;11.50;3.30;;;;;;;22.83;60.34;101156.01;111051;1209;97607;-62
2023/06/22 08:25:34;;;;;;;10.70;3.70;;;;;;;22.85;59.86;101162.71;111063;1206;137991;-61
2023/06/22 08:28:00;;;;;;;6.70;3.30;;;;;;;22.90;59.25;101163.55;111168;1208;97721;-61
2023/06/22 08:30:25;;;;;;;5.40;3.40;;;;;;;22.95;59.03;101159.29;111104;1209;139798;-61
2023/06/22 08:32:51;;;;;;;10.10;3.40;;;;;;;23.02;59.22;101158.87;111097;1208;97240;-61
2023/06/22 08:35:16;;;;;;;8.30;3.40;;;;;;;23.07;58.92;101160.27;111119;1206;97594;-61
2023/06/22 08:37:41;;;;;;;5.30;2.90;;;;;;;23.13;59.05;101167.52;111046;1205;137694;-61
2023/06/22 08:40:09;;;;;;;5.20;3.30;;;;;;;23.21;58.53;101167.73;111132;1209;98858;-61
2023/06/22 08:42:40;;;;;;;4.30;2.60;;;;;;;23.25;57.95;101163.59;111139;1208;138391;-61
2023/06/22 08:45:06;;;;;;;4.60;3.10;;;;;;;23.27;57.56;101165.56;111106;1208;103325;-62
2023/06/22 08:47:32;;;;;;;11.30;3.60;;;;;;;23.29;56.44;101167.21;111294;1209;97744;-61
2023/06/22 08:49:57;;;;;;;6.40;2.90;;;;;;;23.31;55.93;101159.74;110888;1208;139549;-61
2023/06/22 08:52:23;;;;;;;8.50;2.80;;;;;;;23.35;55.79;101159.06;110761;1208;97674;-61
2023/06/22 08:54:49;;;;;;;4.90;2.50;;;;;;;23.41;55.75;101155.56;111077;1209;139170;-62
2023/06/22 08:57:15;;;;;;;6.80;2.50;;;;;;;23.52;54.56;101152.42;110842;1209;97805;-59
2023/06/22 08:59:41;;;;;;;6.10;2.50;;;;;;;23.61;53.19;101150.29;110866;1206;97678;-61
2023/06/22 09:02:07;;;;;;;4.10;2.60;;;;;;;23.69;52.32;101146.48;110990;1208;139464;-61
2023/06/22 09:04:34;;;;;;;2.90;2.20;;;;;;;23.73;52.44;101139.20;110996;1208;97689;-61
2023/06/22 09:07:00;;;;;;;4.90;2.60;;;;;;;23.75;51.71;101132.98;110774;1208;138303;-61
2023/06/22 09:09:26;;;;;;;3.80;2.70;;;;;;;23.83;51.68;101130.25;110834;1206;97590;-61
2023/06/22 09:11:51;;;;;;;3.50;2.40;;;;;;;23.96;51.79;101120.85;110889;1218;99115;-61
2023/06/22 09:14:16;;;;;;;6.80;2.60;;;;;;;24.09;51.48;101118.54;110718;1208;137782;-61
2023/06/22 09:16:42;;;;;;;4.10;2.30;;;;;;;24.19;51.15;101117.58;110971;1205;97691;-61
2023/06/22 09:19:07;;;;;;;5.50;2.90;;;;;;;24.24;50.84;101117.35;110802;1208;140756;-60
2023/06/22 09:21:32;;;;;;;5.30;2.90;;;;;;;24.22;50.78;101115.98;110876;1205;97581;-61
2023/06/22 09:23:57;;;;;;;4.60;2.30;;;;;;;24.28;50.73;101125.70;111040;1208;97974;-60
2023/06/22 09:26:23;;;;;;;6.80;2.50;;;;;;;24.34;49.99;101124.13;110692;1209;141923;-60
2023/06/22 09:28:49;;;;;;;4.30;2.50;;;;;;;24.35;49.45;101126.04;110867;1212;98900;-60
2023/06/22 09:31:16;;;;;;;5.60;2.30;;;;;;;24.39;49.41;101118.65;110806;1209;138514;-61
2023/06/22 09:33:42;;;;;;;3.00;2.00;;;;;;;24.42;49.39;101115.85;110796;1220;99305;-60
2023/06/22 09:36:07;;;;;;;11.50;2.60;;;;;;;24.48;48.95;101110.00;111387;1216;99144;-61
2023/06/22 09:38:39;;;;;;;7.80;2.80;;;;;;;24.57;48.48;101110.19;110893;1210;137610;-60
2023/06/22 09:41:05;;;;;;;4.70;2.80;;;;;;;24.66;48.09;101108.65;110937;1206;98628;-60
2023/06/22 09:43:32;;;;;;;6.70;2.60;;;;;;;24.75;47.22;101107.20;110696;1208;139621;-60
2023/06/22 09:45:57;;;;;;;2.90;2.20;;;;;;;24.81;47.28;101103.35;111050;1208;97693;-61
2023/06/22 09:48:23;;;;;;;6.70;2.50;;;;;;;24.82;47.00;101107.79;110890;1209;139410;-60
2023/06/22 09:50:48;;;;;;;5.40;2.10;;;;;;;24.84;46.60;101102.45;110602;1206;97797;-60
2023/06/22 09:53:13;;;;;;;8.00;2.50;;;;;;;24.82;45.20;101100.31;110711;1208;97703;-61
2023/06/22 09:55:38;;;;;;;8.80;2.60;;;;;;;24.80;44.46;101100.30;110597;1218;139234;-60
2023/06/22 09:58:04;;;;;;;4.10;1.80;;;;;;;24.81;43.76;101093.63;110619;1208;97673;-60
2023/06/22 10:00:29;;;;;;;5.40;2.20;;;;;;;24.82;43.54;101095.19;110611;1218;137871;-61
2023/06/22 10:02:55;;;;;;;5.50;2.60;;;;;;;24.88;43.49;101098.27;110631;1208;97734;-61
2023/06/22 10:05:21;;;;;;;4.30;2.30;;;;;;;24.97;43.77;101095.23;110597;1205;97950;-60
2023/06/22 10:07:46;;;;;;;3.10;2.40;;;;;;;25.05;43.59;101092.47;110666;1206;137673;-61
2023/06/22 10:10:13;;;;;;;5.50;2.20;;;;;;;25.16;43.09;101097.20;110629;1211;97610;-60
2023/06/22 10:12:57;;;;;;;5.00;2.40;;;;;;;25.23;42.87;101098.91;110600;1209;139367;-60
2023/06/22 10:15:23;;;;;;;2.80;2.20;;;;;;;25.23;43.09;101098.65;110649;1222;99659;-61
2023/06/22 10:17:48;;;;;;;7.60;2.30;;;;;;;25.26;43.13;101093.70;110482;1210;97694;-61
2023/06/22 10:20:15;;;;;;;7.30;2.90;;;;;;;25.36;42.95;101094.52;110630;1211;139307;-60
2023/06/22 10:22:44;;;;;;;4.90;2.40;;;;;;;25.45;42.93;101096.70;110652;1206;98968;-60
2023/06/22 10:25:11;;;;;;;5.60;2.60;;;;;;;25.51;43.13;101094.66;110585;1206;138732;-60
2023/06/22 10:27:39;;;;;;;3.00;2.20;;;;;;;25.56;43.12;101086.11;110637;1208;99337;-61
2023/06/22 10:30:10;;;;;;;6.00;2.30;;;;;;;25.64;43.30;101082.24;110847;1208;97693;-61
2023/06/22 10:32:37;;;;;;;5.70;2.50;;;;;;;25.75;43.01;101078.61;111334;1206;98758;-61
2023/06/22 10:35:02;;;;;;;4.10;2.10;;;;;;;25.84;43.12;101085.00;110632;1209;98392;-61
2023/06/22 10:37:27;;;;;;;4.70;2.30;;;;;;;26.01;42.88;101089.80;110533;1211;139233;-65
2023/06/22 10:39:53;;;;;;;6.40;2.60;;;;;;;26.13;42.76;101097.95;110946;1208;98242;-64
2023/06/22 10:42:18;;;;;;;4.60;2.80;;;;;;;26.15;42.70;101097.90;110741;1208;139321;-61
2023/06/22 10:44:44;;;;;;;3.90;2.10;;;;;;;26.16;43.05;101088.75;110796;1206;101524;-62
2023/06/22 10:47:11;;;;;;;8.80;2.40;;;;;;;26.28;42.50;101082.13;110752;1208;98361;-61
2023/06/22 10:49:37;;;;;;;3.70;2.40;;;;;;;26.39;42.47;101080.27;111024;1209;138208;-61
2023/06/22 10:52:02;;;;;;;5.00;2.40;;;;;;;26.46;42.13;101087.99;111051;1208;97636;-61
2023/06/22 10:54:28;;;;;;;14.20;2.70;;;;;;;26.48;41.93;101090.70;110861;1206;139150;-61
2023/06/22 10:56:54;;;;;;;8.50;2.60;;;;;;;26.56;41.88;101088.14;111027;1205;97608;-61
2023/06/22 10:59:21;;;;;;;6.80;2.70;;;;;;;26.69;41.96;101080.08;111102;1208;98678;-60
2023/06/22 11:01:46;;;;;;;4.70;2.40;;;;;;;26.76;41.52;101080.75;111039;1204;138781;-64
2023/06/22 11:04:12;;;;;;;4.40;2.90;;;;;;;26.82;40.97;101084.74;110977;1209;98579;-62
2023/06/22 11:06:37;;;;;;;5.60;3.10;;;;;;;26.85;40.86;101081.90;110936;1208;138301;-62